createdAt,value
2023-08-18T00:01:30.437Z,100490.91
2023-08-18T00:04:33.637Z,100480.66
2023-08-18T00:07:36.365Z,100492.50
2023-08-18T00:10:39.299Z,100474.66
2023-08-18T00:13:41.885Z,100486.06
2023-08-18T00:16:45.137Z,100479.97
2023-08-18T00:19:48.344Z,100483.81
2023-08-18T00:22:51.317Z,100461.09
2023-08-18T00:25:54.006Z,100490.50
2023-08-18T00:28:56.921Z,100485.63
2023-08-18T00:32:00.329Z,100480.84
2023-08-18T00:35:03.380Z,100481.91
2023-08-18T00:38:06.090Z,100468.56
2023-08-18T00:41:09.762Z,100476.12
2023-08-18T00:44:12.466Z,100469.28
2023-08-18T00:47:15.737Z,100470.72
2023-08-18T00:50:20.229Z,100464.63
2023-08-18T00:53:23.823Z,100465.81
2023-08-18T00:56:26.667Z,100462.88
2023-08-18T00:59:30.636Z,100466.66
2023-08-18T01:02:33.645Z,100471.63
2023-08-18T01:05:37.216Z,100473.00
2023-08-18T01:08:40.762Z,100475.62
2023-08-18T01:12:04.866Z,100480.13
2023-08-18T01:15:18.345Z,100487.28
2023-08-18T01:18:21.374Z,100482.06
2023-08-18T01:21:26.175Z,100485.88
2023-08-18T01:24:29.176Z,100485.28
2023-08-18T01:27:32.910Z,100478.38
2023-08-18T01:30:47.270Z,100475.75
2023-08-18T01:33:57.852Z,100468.47
2023-08-18T01:37:03.470Z,100470.31
2023-08-18T01:40:11.364Z,100478.13
2023-08-18T01:43:14.344Z,100470.13
2023-08-18T01:46:17.400Z,100475.62
2023-08-18T01:49:21.992Z,100477.34
2023-08-18T01:52:24.757Z,100468.22
2023-08-18T01:55:27.675Z,100471.09
2023-08-18T01:58:30.413Z,100462.03
2023-08-18T02:01:33.510Z,100461.91
2023-08-18T02:04:36.751Z,100463.13
2023-08-18T02:07:39.336Z,100455.56
2023-08-18T02:10:42.274Z,100463.47
2023-08-18T02:13:44.984Z,100456.34
2023-08-18T02:16:49.567Z,100462.59
2023-08-18T02:19:53.338Z,100460.09
2023-08-18T02:22:56.042Z,100467.75
2023-08-18T02:26:06.067Z,100464.88
2023-08-18T02:29:08.776Z,100481.00
2023-08-18T02:32:11.712Z,100466.28
2023-08-18T02:35:14.386Z,100473.22
2023-08-18T02:38:17.396Z,100456.91
2023-08-18T02:41:23.061Z,100467.72
2023-08-18T02:44:27.089Z,100457.09
2023-08-18T02:47:29.928Z,100459.19
2023-08-18T02:50:33.201Z,100457.59
2023-08-18T02:53:38.368Z,100451.19
2023-08-18T02:56:41.558Z,100450.13
2023-08-18T02:59:44.234Z,100443.59
2023-08-18T03:02:48.075Z,100446.31
2023-08-18T03:05:51.614Z,100442.97
2023-08-18T03:08:54.516Z,100452.91
2023-08-18T03:11:58.317Z,100447.97
2023-08-18T03:15:01.299Z,100454.13
2023-08-18T03:18:05.145Z,100445.69
2023-08-18T03:21:08.168Z,100460.81
2023-08-18T03:24:11.266Z,100454.13
2023-08-18T03:27:14.220Z,100452.47
2023-08-18T03:30:17.873Z,100452.53
2023-08-18T03:33:20.824Z,100453.31
2023-08-18T03:36:23.679Z,100464.56
2023-08-18T03:39:26.651Z,100457.53
2023-08-18T03:42:29.322Z,100450.50
2023-08-18T03:45:32.280Z,100454.06
2023-08-18T03:48:34.902Z,100461.78
2023-08-18T03:51:38.072Z,100462.81
2023-08-18T03:54:40.856Z,100472.16
2023-08-18T03:57:43.889Z,100478.06
2023-08-18T04:00:46.779Z,100477.00
2023-08-18T04:03:50.198Z,100482.16
2023-08-18T04:06:52.911Z,100484.50
2023-08-18T04:09:55.918Z,100480.50
2023-08-18T04:12:58.625Z,100476.41
2023-08-18T04:16:01.572Z,100478.13
2023-08-18T04:19:07.429Z,100474.56
2023-08-18T04:22:11.236Z,100476.47
2023-08-18T04:25:14.501Z,100460.97
2023-08-18T04:28:18.244Z,100452.72
2023-08-18T04:31:20.943Z,100457.66
2023-08-18T04:34:24.433Z,100472.22
2023-08-18T04:37:27.076Z,100486.75
2023-08-18T04:40:30.069Z,100487.47
2023-08-18T04:43:32.965Z,100495.09
2023-08-18T04:46:36.066Z,100507.81
2023-08-18T04:49:39.005Z,100522.53
2023-08-18T04:52:42.688Z,100525.22
2023-08-18T04:55:45.972Z,100514.44
2023-08-18T04:58:49.870Z,100510.16
2023-08-18T05:01:53.410Z,100529.84
2023-08-18T05:04:56.476Z,100531.22
2023-08-18T05:07:59.248Z,100525.06
2023-08-18T05:11:10.089Z,100515.31
2023-08-18T05:14:13.656Z,100514.69
2023-08-18T05:17:16.736Z,100509.75
2023-08-18T05:20:19.419Z,100505.31
2023-08-18T05:23:22.456Z,100490.25
2023-08-18T05:26:25.439Z,100499.81
2023-08-18T05:29:28.459Z,100494.94
2023-08-18T05:32:31.264Z,100508.34
2023-08-18T05:35:34.439Z,100509.28
2023-08-18T05:38:37.212Z,100516.97
2023-08-18T05:41:40.206Z,100518.09
2023-08-18T05:44:44.108Z,100514.19
2023-08-18T05:47:47.094Z,100514.94
2023-08-18T05:50:49.730Z,100512.34
2023-08-18T05:53:52.773Z,100525.41
2023-08-18T05:56:55.659Z,100522.28
2023-08-18T05:59:58.717Z,100518.63
2023-08-18T06:03:01.515Z,100506.88
2023-08-18T06:06:06.897Z,100517.66
2023-08-18T06:09:09.933Z,100507.84
2023-08-18T06:12:12.898Z,100498.69
2023-08-18T06:15:16.450Z,100489.97
2023-08-18T06:18:20.182Z,100481.63
2023-08-18T06:21:22.868Z,100485.38
2023-08-18T06:24:25.825Z,100490.38
2023-08-18T06:27:28.426Z,100492.25
2023-08-18T06:30:31.394Z,100490.25
2023-08-18T06:33:37.801Z,100487.47
2023-08-18T06:36:40.761Z,100494.19
2023-08-18T06:39:44.441Z,100480.00
2023-08-18T06:42:49.920Z,100485.88
2023-08-18T06:45:52.636Z,100483.50
2023-08-18T06:48:55.673Z,100493.12
2023-08-18T06:51:58.402Z,100495.13
2023-08-18T06:55:02.383Z,100506.28
2023-08-18T06:58:05.415Z,100499.34
2023-08-18T07:01:08.477Z,100497.44
2023-08-18T07:04:11.608Z,100496.72
2023-08-18T07:07:14.708Z,100493.19
2023-08-18T07:10:17.350Z,100491.03
2023-08-18T07:13:22.316Z,100489.66
2023-08-18T07:16:24.939Z,100485.78
2023-08-18T07:19:27.887Z,100495.84
2023-08-18T07:22:30.823Z,100498.53
2023-08-18T07:25:34.058Z,100502.94
2023-08-18T07:28:36.768Z,100503.34
2023-08-18T07:31:39.842Z,100501.81
2023-08-18T07:34:42.438Z,100501.03
2023-08-18T07:40:53.052Z,100508.19
2023-08-18T07:43:56.371Z,100512.88
2023-08-18T07:46:59.033Z,100516.22
2023-08-18T07:50:02.072Z,100520.59
2023-08-18T07:56:07.564Z,100513.78
2023-08-18T07:59:10.727Z,100513.34
2023-08-18T08:02:27.686Z,100517.12
2023-08-18T08:05:34.232Z,100515.81
2023-08-18T08:08:37.064Z,100520.84
2023-08-18T08:11:40.027Z,100512.13
2023-08-18T08:14:43.954Z,100513.78
2023-08-18T08:17:47.018Z,100513.59
2023-08-18T08:20:49.813Z,100514.56
2023-08-18T08:23:52.879Z,100522.72
2023-08-18T08:26:57.053Z,100524.50
2023-08-18T08:30:03.018Z,100527.69
2023-08-18T08:33:06.590Z,100532.31
2023-08-18T08:36:09.591Z,100525.59
2023-08-18T08:39:12.227Z,100536.69
2023-08-18T08:42:15.187Z,100542.97
2023-08-18T08:45:17.948Z,100550.44
2023-08-18T08:48:22.788Z,100560.28
2023-08-18T08:51:28.988Z,100554.69
2023-08-18T08:54:34.297Z,100565.16
2023-08-18T08:57:38.050Z,100566.16
2023-08-18T09:00:41.331Z,100564.94
2023-08-18T09:03:46.313Z,100564.03
2023-08-18T09:06:49.714Z,100557.97
2023-08-18T09:09:52.364Z,100575.84
2023-08-18T09:12:56.481Z,100575.97
2023-08-18T09:15:59.150Z,100575.69
2023-08-18T09:19:03.061Z,100571.66
2023-08-18T09:22:06.045Z,100569.16
2023-08-18T09:25:09.914Z,100565.13
2023-08-18T09:28:16.384Z,100563.84
2023-08-18T09:31:22.428Z,100564.78
2023-08-18T09:34:25.750Z,100565.41
2023-08-18T09:37:32.633Z,100567.28
2023-08-18T09:40:35.189Z,100576.56
2023-08-18T09:43:39.310Z,100562.00
2023-08-18T09:46:43.491Z,100570.69
2023-08-18T09:49:49.161Z,100582.78
2023-08-18T09:52:56.022Z,100573.41
2023-08-18T09:56:05.249Z,100572.03
2023-08-18T09:59:24.086Z,100572.53
2023-08-18T10:02:34.998Z,100574.16
2023-08-18T10:05:38.368Z,100584.25
2023-08-18T10:08:42.156Z,100581.00
2023-08-18T10:11:52.897Z,100586.59
2023-08-18T10:14:57.713Z,100579.31
2023-08-18T10:18:00.870Z,100566.97
2023-08-18T10:21:04.773Z,100574.97
2023-08-18T10:24:08.279Z,100575.28
2023-08-18T10:27:13.535Z,100567.06
2023-08-18T10:30:16.402Z,100571.34
2023-08-18T10:33:32.451Z,100583.03
2023-08-18T10:36:36.474Z,100563.00
2023-08-18T10:39:39.129Z,100575.41
2023-08-18T10:42:42.967Z,100555.06
2023-08-18T10:45:51.742Z,100565.69
2023-08-18T10:48:54.834Z,100567.75
2023-08-18T10:51:57.979Z,100565.63
2023-08-18T10:55:00.989Z,100549.78
2023-08-18T10:58:03.881Z,100573.50
2023-08-18T11:01:09.614Z,100544.97
2023-08-18T11:04:12.407Z,100557.94
2023-08-18T11:07:15.923Z,100555.09
2023-08-18T11:10:22.798Z,100548.75
2023-08-18T11:13:30.367Z,100550.31
2023-08-18T11:16:35.834Z,100550.94
2023-08-18T11:19:38.776Z,100542.97
2023-08-18T11:22:43.738Z,100551.38
2023-08-18T11:25:47.940Z,100555.87
2023-08-18T11:28:51.168Z,100560.88
2023-08-18T11:31:54.226Z,100562.13
2023-08-18T11:34:57.190Z,100554.97
2023-08-18T11:38:00.251Z,100555.13
2023-08-18T11:41:04.096Z,100551.06
2023-08-18T11:44:08.331Z,100548.25
2023-08-18T11:47:13.011Z,100536.25
2023-08-18T11:50:21.041Z,100545.78
2023-08-18T11:53:29.683Z,100548.91
2023-08-18T11:56:33.008Z,100543.28
2023-08-18T11:59:35.771Z,100536.44
2023-08-18T12:02:47.734Z,100535.81
2023-08-18T12:05:51.766Z,100524.13
2023-08-18T12:08:55.276Z,100529.41
2023-08-18T12:11:58.277Z,100529.41
2023-08-18T12:15:00.942Z,100527.97
2023-08-18T12:18:05.012Z,100520.12
2023-08-18T12:21:07.912Z,100514.50
2023-08-18T12:24:10.843Z,100524.91
2023-08-18T12:27:13.513Z,100535.09
2023-08-18T12:30:17.797Z,100528.75
2023-08-18T12:33:20.926Z,100540.56
2023-08-18T12:36:24.026Z,100537.19
2023-08-18T12:39:26.645Z,100515.91
2023-08-18T12:42:31.628Z,100527.97
2023-08-18T12:45:34.670Z,100515.81
2023-08-18T12:48:37.756Z,100531.78
2023-08-18T12:51:40.513Z,100526.69
2023-08-18T12:54:43.625Z,100518.19
2023-08-18T12:57:48.076Z,100525.81
2023-08-18T13:00:51.104Z,100540.94
2023-08-18T13:03:53.948Z,100530.78
2023-08-18T13:06:56.975Z,100517.84
2023-08-18T13:09:59.630Z,100501.59
2023-08-18T13:13:02.744Z,100515.69
2023-08-18T13:16:05.616Z,100505.53
2023-08-18T13:19:09.571Z,100499.88
2023-08-18T13:22:12.886Z,100509.91
2023-08-18T13:25:16.914Z,100513.69
2023-08-18T13:28:19.994Z,100506.59
2023-08-18T13:31:22.954Z,100503.72
2023-08-18T13:34:25.607Z,100487.81
2023-08-18T13:37:28.634Z,100501.50
2023-08-18T13:40:32.086Z,100491.97
2023-08-18T13:43:34.984Z,100499.28
2023-08-18T13:46:37.963Z,100496.28
2023-08-18T13:49:41.067Z,100477.91
2023-08-18T13:52:43.716Z,100484.75
2023-08-18T13:55:46.734Z,100499.22
2023-08-18T13:58:49.482Z,100483.97
2023-08-18T14:01:52.523Z,100483.91
2023-08-18T14:04:55.601Z,100481.13
2023-08-18T14:07:58.394Z,100478.19
2023-08-18T14:11:01.379Z,100473.22
2023-08-18T14:14:04.305Z,100470.78
2023-08-18T14:17:08.827Z,100476.63
2023-08-18T14:20:13.992Z,100471.00
2023-08-18T14:23:16.957Z,100466.84
2023-08-18T14:26:21.814Z,100458.13
2023-08-18T14:29:25.373Z,100440.53
2023-08-18T14:32:28.283Z,100457.56
2023-08-18T14:35:31.675Z,100458.41
2023-08-18T14:38:34.257Z,100443.22
2023-08-18T14:41:37.375Z,100439.03
2023-08-18T14:44:40.118Z,100443.22
2023-08-18T14:47:43.053Z,100440.94
2023-08-18T14:50:45.731Z,100434.69
2023-08-18T14:53:48.707Z,100439.97
2023-08-18T14:56:51.553Z,100435.75
2023-08-18T14:59:54.556Z,100434.09
2023-08-18T15:02:59.184Z,100429.34
2023-08-18T15:06:02.264Z,100437.72
2023-08-18T15:09:05.559Z,100437.63
2023-08-18T15:12:08.852Z,100423.75
2023-08-18T15:15:11.608Z,100425.09
2023-08-18T15:18:14.706Z,100436.00
2023-08-18T15:21:17.387Z,100440.50
2023-08-18T15:24:21.657Z,100446.91
2023-08-18T15:27:24.453Z,100437.63
2023-08-18T15:30:27.549Z,100438.66
2023-08-18T15:33:30.235Z,100437.13
2023-08-18T15:36:34.089Z,100420.41
2023-08-18T15:39:36.816Z,100411.06
2023-08-18T15:42:39.882Z,100424.97
2023-08-18T15:45:49.076Z,100437.63
2023-08-18T15:48:51.988Z,100435.12
2023-08-18T15:51:54.654Z,100421.91
2023-08-18T15:54:57.691Z,100427.50
2023-08-18T15:58:01.052Z,100425.78
2023-08-18T16:01:05.214Z,100430.81
2023-08-18T16:04:08.214Z,100433.31
2023-08-18T16:07:10.833Z,100412.06
2023-08-18T16:10:13.875Z,100421.59
2023-08-18T16:13:16.584Z,100429.09
2023-08-18T16:16:19.547Z,100423.31
2023-08-18T16:19:23.701Z,100431.09
2023-08-18T16:22:26.868Z,100438.72
2023-08-18T16:25:29.755Z,100427.78
2023-08-18T16:28:32.793Z,100418.47
2023-08-18T16:31:35.487Z,100424.75
2023-08-18T16:34:38.531Z,100430.37
2023-08-18T16:37:41.721Z,100432.56
2023-08-18T16:40:45.957Z,100424.13
2023-08-18T16:43:48.600Z,100421.38
2023-08-18T16:46:51.672Z,100412.31
2023-08-18T16:49:54.528Z,100409.97
2023-08-18T16:52:57.490Z,100406.25
2023-08-18T16:56:00.233Z,100410.16
2023-08-18T16:59:03.297Z,100401.44
2023-08-18T17:02:06.076Z,100389.44
2023-08-18T17:05:09.330Z,100406.56
2023-08-18T17:08:12.117Z,100398.31
2023-08-18T17:11:15.118Z,100409.84
2023-08-18T17:14:21.071Z,100393.00
2023-08-18T17:17:26.275Z,100398.31
2023-08-18T17:20:30.043Z,100416.06
2023-08-18T17:23:33.125Z,100421.50
2023-08-18T17:26:36.112Z,100407.63
2023-08-18T17:29:40.357Z,100429.44
2023-08-18T17:32:43.151Z,100424.06
2023-08-18T17:35:46.192Z,100453.47
2023-08-18T17:38:48.970Z,100460.69
2023-08-18T17:41:52.039Z,100474.53
2023-08-18T17:44:54.815Z,100488.69
2023-08-18T17:47:57.818Z,100493.16
2023-08-18T17:51:02.715Z,100500.84
2023-08-18T17:54:05.907Z,100495.84
2023-08-18T17:57:10.797Z,100489.16
2023-08-18T18:00:14.197Z,100471.72
2023-08-18T18:03:17.616Z,100487.13
2023-08-18T18:06:21.332Z,100477.19
2023-08-18T18:09:24.432Z,100483.28
2023-08-18T18:12:27.206Z,100475.38
2023-08-18T18:15:30.262Z,100484.97
2023-08-18T18:18:33.025Z,100494.16
2023-08-18T18:21:36.058Z,100475.22
2023-08-18T18:24:39.545Z,100498.44
2023-08-18T18:27:42.535Z,100506.62
2023-08-18T18:30:45.269Z,100502.16
2023-08-18T18:33:48.275Z,100495.72
2023-08-18T18:36:51.054Z,100483.25
2023-08-18T18:39:54.196Z,100497.56
2023-08-18T18:42:56.857Z,100488.75
2023-08-18T18:45:59.982Z,100498.69
2023-08-18T18:49:02.759Z,100502.72
2023-08-18T18:52:05.929Z,100502.25
2023-08-18T18:55:09.050Z,100504.63
2023-08-18T18:58:12.174Z,100509.44
2023-08-18T19:01:14.911Z,100498.84
2023-08-18T19:04:17.897Z,100508.78
2023-08-18T19:07:20.863Z,100505.88
2023-08-18T19:10:23.845Z,100512.38
2023-08-18T19:13:26.900Z,100518.59
2023-08-18T19:16:30.224Z,100511.13
2023-08-18T19:19:32.976Z,100518.41
2023-08-18T19:22:36.006Z,100519.94
2023-08-18T19:25:45.712Z,100495.06
2023-08-18T19:28:55.296Z,100517.38
2023-08-18T19:31:58.709Z,100488.31
2023-08-18T19:35:01.669Z,100483.94
2023-08-18T19:38:05.110Z,100495.69
2023-08-18T19:41:09.524Z,100508.66
2023-08-18T19:44:12.328Z,100506.22
2023-08-18T19:47:15.302Z,100507.66
2023-08-18T19:50:18.211Z,100506.44
2023-08-18T19:53:22.686Z,100501.81
2023-08-18T19:56:25.338Z,100494.56
2023-08-18T19:59:30.917Z,100508.31
2023-08-18T20:02:34.224Z,100511.56
2023-08-18T20:05:37.499Z,100483.28
2023-08-18T20:08:40.330Z,100508.53
2023-08-18T20:11:43.341Z,100501.37
2023-08-18T20:14:46.000Z,100510.53
2023-08-18T20:17:49.538Z,100514.87
2023-08-18T20:20:53.611Z,100505.19
2023-08-18T20:23:59.812Z,100492.00
2023-08-18T20:27:02.443Z,100503.94
2023-08-18T20:30:06.525Z,100482.41
2023-08-18T20:36:14.648Z,100492.22
2023-08-18T20:39:17.311Z,100470.13
2023-08-18T20:42:24.223Z,100479.72
2023-08-18T20:45:27.164Z,100495.59
2023-08-18T20:48:30.574Z,100480.84
2023-08-18T20:51:33.269Z,100506.66
2023-08-18T20:54:36.363Z,100500.38
2023-08-18T20:57:39.258Z,100483.81
2023-08-18T21:00:43.245Z,100484.37
2023-08-18T21:03:47.832Z,100487.97
2023-08-18T21:06:50.992Z,100501.69
2023-08-18T21:09:54.010Z,100491.34
2023-08-18T21:12:57.026Z,100500.19
2023-08-18T21:16:00.746Z,100493.63
2023-08-18T21:19:04.947Z,100494.06
2023-08-18T21:22:07.810Z,100475.94
2023-08-18T21:25:10.821Z,100473.12
2023-08-18T21:28:13.449Z,100494.37
2023-08-18T21:31:16.492Z,100489.00
2023-08-18T21:34:19.196Z,100484.84
2023-08-18T21:37:22.260Z,100473.75
2023-08-18T21:40:24.897Z,100467.06
2023-08-18T21:43:28.378Z,100492.41
2023-08-18T21:46:31.142Z,100479.34
2023-08-18T21:49:34.380Z,100497.81
2023-08-18T21:52:37.094Z,100448.03
2023-08-18T21:55:40.175Z,100483.66
2023-08-18T21:58:43.025Z,100483.63
2023-08-18T22:01:46.080Z,100485.97
2023-08-18T22:04:49.743Z,100477.72
2023-08-18T22:07:52.431Z,100478.28
2023-08-18T22:10:56.178Z,100486.19
2023-08-18T22:13:58.948Z,100477.56
2023-08-18T22:17:01.954Z,100479.47
2023-08-18T22:20:08.356Z,100476.06
2023-08-18T22:23:11.671Z,100484.34
2023-08-18T22:26:15.524Z,100489.13
2023-08-18T22:29:18.575Z,100492.84
2023-08-18T22:32:21.333Z,100492.28
2023-08-18T22:35:24.275Z,100490.38
2023-08-18T22:38:27.074Z,100473.84
2023-08-18T22:41:30.421Z,100477.28
2023-08-18T22:44:34.251Z,100491.59
2023-08-18T22:47:39.713Z,100486.28
2023-08-18T22:50:42.913Z,100475.06
2023-08-18T22:53:45.961Z,100462.19
2023-08-18T22:56:48.593Z,100471.53
2023-08-18T22:59:51.665Z,100475.13
2023-08-18T23:02:54.697Z,100449.78
2023-08-18T23:06:01.349Z,100473.59
2023-08-18T23:09:04.783Z,100487.63
2023-08-18T23:12:08.520Z,100489.75
2023-08-18T23:15:11.986Z,100483.06
2023-08-18T23:18:14.960Z,100472.44
2023-08-18T23:21:18.221Z,100479.72
2023-08-18T23:24:23.973Z,100481.19
2023-08-18T23:27:27.049Z,100482.19
2023-08-18T23:30:30.583Z,100484.59
2023-08-18T23:33:33.582Z,100477.47
2023-08-18T23:36:36.545Z,100479.16
2023-08-18T23:39:39.182Z,100477.13
2023-08-18T23:42:43.976Z,100486.91
2023-08-18T23:45:46.781Z,100465.50
2023-08-18T23:48:50.729Z,100470.22
2023-08-18T23:51:53.420Z,100470.84
2023-08-18T23:54:56.328Z,100455.88
2023-08-18T23:57:59.062Z,100470.41
